Temp: 17.4°C   Baro: 1010.0mb
  Wind: 2.9mph   Dir: WNW (284°)
  Rain: 0.8mm (0.0mm/hr)
  Solar: 160W/m2  Hum: 91%
 
Bath Spa Weather Station Historical Data
Daily Summary for June 4, 2019 Units:  Both    English   Metric
Daily Weekly Monthly Yearly Custom
  High: Low: Average:
Temperature: 76.2 °F /  24.6 °C 51.3 °F /  10.7 °C 65.3 °F /  18.5 °C
Dew Point: 56.8 °F /  13.8 °C 46.3 °F /  7.9 °C 51.4 °F /  10.8 °C
Humidity: 85% 41% 62%
Wind Speed: 6.4mph /  10.3km/h - 1.7mph /  2.7km/h
Wind Gust: 10mph /  16.1km/h - -
Wind- - SSW
Pressure: 30.33 in /  1027 hPa 30.16 in /  1021.2 hPa -
Precipitation: 0.00 in /  0 mm    
Historical Graphs
 
 
Tabular Data for June 4, 2019
Time Temperature Dew Point Pressure Wind Wind Speed Wind Gust Humidity Rainfall Rate (Hourly) solar
00:04 60.7 °F /  15.9 °C 50.8 °F /  10.4 °C 30.31in /  1026.3hPa NE 0.4mph /  0.6km/h 4mph /  6.4km/h 70% 0.00in /  0mm 0 W/m2
00:09 60.6 °F /  15.9 °C 50.7 °F /  10.4 °C 30.31in /  1026.3hPa NE 1mph /  1.6km/h 5mph /  8km/h 70% 0.00in /  0mm 0 W/m2
00:14 60.6 °F /  15.9 °C 50.7 °F /  10.4 °C 30.31in /  1026.3hPa ENE 2.5mph /  4km/h 7mph /  11.3km/h 70% 0.00in /  0mm 0 W/m2
00:19 60.6 °F /  15.9 °C 50.8 °F /  10.4 °C 30.31in /  1026.3hPa ENE 1.1mph /  1.8km/h 7mph /  11.3km/h 70.2% 0.00in /  0mm 0 W/m2
00:24 60.6 °F /  15.9 °C 51.1 °F /  10.6 °C 30.31in /  1026.3hPa ENE 0.5mph /  0.8km/h 5mph /  8km/h 71% 0.00in /  0mm 0 W/m2
00:29 60.6 °F /  15.9 °C 51.1 °F /  10.6 °C 30.31in /  1026.3hPa ENE 0.6mph /  1km/h 5mph /  8km/h 71% 0.00in /  0mm 0 W/m2
00:34 60.5 °F /  15.8 °C 51.1 °F /  10.6 °C 30.31in /  1026.3hPa ENE 1.7mph /  2.7km/h 5mph /  8km/h 71% 0.00in /  0mm 0 W/m2
00:39 60.4 °F /  15.8 °C 51.1 °F /  10.6 °C 30.31in /  1026.3hPa ENE 1.2mph /  1.9km/h 6mph /  9.7km/h 71% 0.00in /  0mm 0 W/m2
00:44 60.4 °F /  15.8 °C 51.1 °F /  10.6 °C 30.31in /  1026.3hPa ENE 1.9mph /  3.1km/h 6mph /  9.7km/h 71% 0.00in /  0mm 0 W/m2
00:49 60.4 °F /  15.8 °C 51.1 °F /  10.6 °C 30.31in /  1026.3hPa ENE 0.8mph /  1.3km/h 6mph /  9.7km/h 71.1% 0.00in /  0mm 0 W/m2
00:54 60.3 °F /  15.7 °C 51.3 °F /  10.7 °C 30.31in /  1026.3hPa ENE 1.5mph /  2.4km/h 6mph /  9.7km/h 72% 0.00in /  0mm 0 W/m2
00:59 60.3 °F /  15.7 °C 51.3 °F /  10.7 °C 30.31in /  1026.3hPa ENE 0.5mph /  0.8km/h 5mph /  8km/h 72% 0.00in /  0mm 0 W/m2
01:04 60.2 °F /  15.7 °C 51.2 °F /  10.7 °C 30.31in /  1026.3hPa ENE 0.5mph /  0.8km/h 3mph /  4.8km/h 72% 0.00in /  0mm 0 W/m2
01:09 60 °F /  15.6 °C 51 °F /  10.6 °C 30.31in /  1026.3hPa ENE 0.2mph /  0.3km/h 3mph /  4.8km/h 72% 0.00in /  0mm 0 W/m2
01:14 59.9 °F /  15.5 °C 50.9 °F /  10.5 °C 30.32in /  1026.6hPa Calm     72% 0.00in /  0mm 0 W/m2
01:19 59.7 °F /  15.4 °C 50.7 °F /  10.4 °C 30.32in /  1026.6hPa ENE 0.4mph /  0.6km/h 2mph /  3.2km/h 72% 0.00in /  0mm 0 W/m2
01:24 59.5 °F /  15.3 °C 50.5 °F /  10.3 °C 30.32in /  1026.6hPa ENE 0.1mph /  0.2km/h 2mph /  3.2km/h 72% 0.00in /  0mm 0 W/m2
01:29 59.4 °F /  15.2 °C 50.6 °F /  10.3 °C 30.32in /  1026.6hPa ENE 0.1mph /  0.2km/h 2mph /  3.2km/h 72.7% 0.00in /  0mm 0 W/m2
01:34 59.3 °F /  15.2 °C 50.6 °F /  10.3 °C 30.32in /  1026.6hPa ENE 0.8mph /  1.3km/h 3mph /  4.8km/h 73% 0.00in /  0mm 0 W/m2
01:39 59.1 °F /  15.1 °C 50.5 °F /  10.3 °C 30.32in /  1026.6hPa ENE 0.2mph /  0.3km/h 3mph /  4.8km/h 73% 0.00in /  0mm 0 W/m2
01:44 59 °F /  15 °C 50.4 °F /  10.2 °C 30.32in /  1026.6hPa ENE 1.5mph /  2.4km/h 5mph /  8km/h 73% 0.00in /  0mm 0 W/m2
01:49 58.7 °F /  14.8 °C 50.1 °F /  10.1 °C 30.32in /  1026.6hPa ESE 1.6mph /  2.6km/h 7mph /  11.3km/h 73% 0.00in /  0mm 0 W/m2
01:54 58.6 °F /  14.8 °C 50 °F /  10 °C 30.32in /  1026.6hPa ESE 0.7mph /  1.1km/h 7mph /  11.3km/h 73% 0.00in /  0mm 0 W/m2
01:59 58.5 °F /  14.7 °C 50 °F /  10 °C 30.32in /  1026.6hPa ESE 0.5mph /  0.8km/h 2mph /  3.2km/h 73.3% 0.00in /  0mm 0 W/m2
02:04 58.3 °F /  14.6 °C 49.7 °F /  9.8 °C 30.32in /  1026.6hPa ESE 1mph /  1.6km/h 4mph /  6.4km/h 73.2% 0.00in /  0mm 0 W/m2
02:09 58 °F /  14.4 °C 49.7 °F /  9.8 °C 30.32in /  1026.6hPa East 1.8mph /  2.9km/h 6mph /  9.7km/h 74% 0.00in /  0mm 0 W/m2
02:14 57.8 °F /  14.3 °C 49.5 °F /  9.7 °C 30.32in /  1026.6hPa East 1.7mph /  2.7km/h 7mph /  11.3km/h 74% 0.00in /  0mm 0 W/m2
02:19 57.7 °F /  14.3 °C 49.5 °F /  9.7 °C 30.32in /  1026.6hPa East 1.9mph /  3.1km/h 5mph /  8km/h 74% 0.00in /  0mm 0 W/m2
02:24 57.5 °F /  14.2 °C 49.2 °F /  9.6 °C 30.32in /  1026.6hPa ESE 0.9mph /  1.4km/h 5mph /  8km/h 74% 0.00in /  0mm 0 W/m2
02:29 57.3 °F /  14.1 °C 49 °F /  9.4 °C 30.32in /  1026.6hPa East 1.6mph /  2.6km/h 4mph /  6.4km/h 74% 0.00in /  0mm 0 W/m2
02:34 57.2 °F /  14 °C 48.9 °F /  9.4 °C 30.32in /  1026.6hPa East 1.5mph /  2.4km/h 4mph /  6.4km/h 74.1% 0.00in /  0mm 0 W/m2
02:39 57 °F /  13.9 °C 49.1 °F /  9.5 °C 30.32in /  1026.6hPa East 0.8mph /  1.3km/h 4mph /  6.4km/h 75% 0.00in /  0mm 0 W/m2
02:44 56.9 °F /  13.8 °C 49 °F /  9.4 °C 30.32in /  1026.6hPa East 0.9mph /  1.4km/h 3mph /  4.8km/h 75% 0.00in /  0mm 0 W/m2
02:49 56.8 °F /  13.8 °C 48.9 °F /  9.4 °C 30.32in /  1026.6hPa East 0.6mph /  1km/h 3mph /  4.8km/h 75% 0.00in /  0mm 0 W/m2
02:54 56.7 °F /  13.7 °C 48.7 °F /  9.3 °C 30.32in /  1026.6hPa East 1.4mph /  2.3km/h 4mph /  6.4km/h 75% 0.00in /  0mm 0 W/m2
02:59 56.6 °F /  13.7 °C 48.7 °F /  9.3 °C 30.32in /  1026.6hPa East 1mph /  1.6km/h 5mph /  8km/h 75% 0.00in /  0mm 0 W/m2
03:04 56.3 °F /  13.5 °C 48.6 °F /  9.2 °C 30.32in /  1026.6hPa ESE 0.8mph /  1.3km/h 5mph /  8km/h 75% 0.00in /  0mm 0 W/m2
03:09 56.3 °F /  13.5 °C 48.6 °F /  9.2 °C 30.32in /  1026.6hPa ESE 0.2mph /  0.3km/h 2mph /  3.2km/h 75% 0.00in /  0mm 0 W/m2
03:14 56.1 °F /  13.4 °C 48.4 °F /  9.1 °C 30.32in /  1026.6hPa Calm   1mph /  1.6km/h 75% 0.00in /  0mm 0 W/m2
03:19 56.1 °F /  13.4 °C 48.4 °F /  9.1 °C 30.32in /  1026.6hPa Calm     75% 0.00in /  0mm 0 W/m2
03:24 55.9 °F /  13.3 °C 48.2 °F /  9 °C 30.32in /  1026.6hPa Calm     75% 0.00in /  0mm 0 W/m2
03:29 55.7 °F /  13.2 °C 48.1 °F /  8.9 °C 30.32in /  1026.6hPa Calm     75.3% 0.00in /  0mm 0 W/m2
03:34 55.5 °F /  13.1 °C 48.1 °F /  8.9 °C 30.32in /  1026.6hPa Calm     76% 0.00in /  0mm 0 W/m2
03:39 55.3 °F /  12.9 °C 47.9 °F /  8.8 °C 30.32in /  1026.6hPa Calm     76% 0.00in /  0mm 0 W/m2
03:44 55.2 °F /  12.9 °C 47.8 °F /  8.8 °C 30.32in /  1026.6hPa Calm     76% 0.00in /  0mm 0 W/m2
03:49 55.1 °F /  12.8 °C 47.8 °F /  8.8 °C 30.32in /  1026.6hPa Calm     76% 0.00in /  0mm 0 W/m2
03:54 55 °F /  12.8 °C 47.8 °F /  8.8 °C 30.32in /  1026.6hPa Calm     76.3% 0.00in /  0mm 0 W/m2
03:59 54.9 °F /  12.7 °C 47.8 °F /  8.8 °C 30.32in /  1026.6hPa Calm     77% 0.00in /  0mm 0 W/m2
04:04 54.6 °F /  12.6 °C 47.6 °F /  8.7 °C 30.32in /  1026.6hPa Calm     77% 0.00in /  0mm 0 W/m2
04:09 54.4 °F /  12.4 °C 47.5 °F /  8.6 °C 30.32in /  1026.6hPa Calm     77.3% 0.00in /  0mm 0 W/m2
04:14 54.2 °F /  12.3 °C 47.6 °F /  8.7 °C 30.32in /  1026.6hPa Calm     78% 0.00in /  0mm 0 W/m2
04:19 54.1 °F /  12.3 °C 47.4 °F /  8.6 °C 30.32in /  1026.6hPa Calm     78% 0.00in /  0mm 0 W/m2
04:24 53.7 °F /  12.1 °C 47.4 °F /  8.6 °C 30.32in /  1026.6hPa Calm     79% 0.00in /  0mm 0 W/m2
04:29 53.2 °F /  11.8 °C 47 °F /  8.3 °C 30.32in /  1026.6hPa Calm     79.5% 0.00in /  0mm 0 W/m2
04:34 52.9 °F /  11.6 °C 46.9 °F /  8.3 °C 30.32in /  1026.6hPa Calm     80% 0.00in /  0mm 0 W/m2
04:39 52.8 °F /  11.6 °C 47 °F /  8.3 °C 30.32in /  1026.6hPa Calm     80.4% 0.00in /  0mm 0 W/m2
04:44 52.7 °F /  11.5 °C 47.1 °F /  8.4 °C 30.32in /  1026.6hPa Calm     81% 0.00in /  0mm 0 W/m2
04:49 52.7 °F /  11.5 °C 47.1 °F /  8.4 °C 30.32in /  1026.6hPa Calm     81% 0.00in /  0mm 0 W/m2
04:54 52.7 °F /  11.5 °C 47.1 °F /  8.4 °C 30.32in /  1026.6hPa Calm     81% 0.00in /  0mm 0 W/m2
04:59 52.5 °F /  11.4 °C 46.9 °F /  8.3 °C 30.32in /  1026.6hPa Calm     81% 0.00in /  0mm 0 W/m2
05:04 52.4 °F /  11.3 °C 46.9 °F /  8.3 °C 30.32in /  1026.6hPa Calm     81.3% 0.00in /  0mm 5 W/m2
05:09 52.3 °F /  11.3 °C 46.9 °F /  8.3 °C 30.32in /  1026.6hPa Calm     82% 0.00in /  0mm 7 W/m2
05:14 52.1 °F /  11.2 °C 46.7 °F /  8.2 °C 30.32in /  1026.6hPa Calm     82% 0.00in /  0mm 9 W/m2
05:19 51.7 °F /  10.9 °C 46.4 °F /  8 °C 30.33in /  1027hPa Calm     82.3% 0.00in /  0mm 11 W/m2
05:24 51.5 °F /  10.8 °C 46.5 °F /  8.1 °C 30.33in /  1027hPa Calm     83% 0.00in /  0mm 12 W/m2
05:29 51.4 °F /  10.8 °C 46.3 °F /  7.9 °C 30.32in /  1026.6hPa Calm     83% 0.00in /  0mm 12 W/m2
05:34 51.3 °F /  10.7 °C 46.6 °F /  8.1 °C 30.32in /  1026.6hPa Calm     84% 0.00in /  0mm 14 W/m2
05:39 51.3 °F /  10.7 °C 46.7 °F /  8.2 °C 30.32in /  1026.6hPa Calm     84% 0.00in /  0mm 16 W/m2
05:44 51.5 °F /  10.8 °C 47.1 °F /  8.4 °C 30.32in /  1026.6hPa Calm     84.6% 0.00in /  0mm 18 W/m2
05:49 51.8 °F /  11 °C 47.3 °F /  8.5 °C 30.32in /  1026.6hPa Calm     84.6% 0.00in /  0mm 19 W/m2
05:54 52.1 °F /  11.2 °C 47.7 °F /  8.7 °C 30.32in /  1026.6hPa Calm     85% 0.00in /  0mm 21 W/m2
05:59 52.3 °F /  11.3 °C 47.9 °F /  8.8 °C 30.32in /  1026.6hPa Calm     84.8% 0.00in /  0mm 21 W/m2
06:04 52.3 °F /  11.3 °C 47.7 °F /  8.7 °C 30.32in /  1026.6hPa Calm     84% 0.00in /  0mm 23 W/m2
06:09 52.4 °F /  11.3 °C 47.7 °F /  8.7 °C 30.32in /  1026.6hPa Calm     84% 0.00in /  0mm 25 W/m2
06:14 52.3 °F /  11.3 °C 47.6 °F /  8.7 °C 30.32in /  1026.6hPa Calm     84% 0.00in /  0mm 26 W/m2
06:19 52.2 °F /  11.2 °C 47.6 °F /  8.7 °C 30.32in /  1026.6hPa Calm     84% 0.00in /  0mm 28 W/m2
06:24 52.3 °F /  11.3 °C 47.7 °F /  8.7 °C 30.33in /  1027hPa Calm     84% 0.00in /  0mm 28 W/m2
06:29 52.3 °F /  11.3 °C 47.7 °F /  8.7 °C 30.32in /  1026.6hPa Calm     84% 0.00in /  0mm 32 W/m2
06:34 52.3 °F /  11.3 °C 47.7 °F /  8.7 °C 30.33in /  1027hPa Calm     84% 0.00in /  0mm 37 W/m2
06:39 52.5 °F /  11.4 °C 47.8 °F /  8.8 °C 30.32in /  1026.6hPa Calm     84% 0.00in /  0mm 46 W/m2
06:44 52.9 °F /  11.6 °C 48.2 °F /  9 °C 30.32in /  1026.6hPa Calm     84% 0.00in /  0mm 58 W/m2
06:49 53.5 °F /  11.9 °C 49 °F /  9.4 °C 30.33in /  1027hPa Calm     84.7% 0.00in /  0mm 72 W/m2
06:54 54.2 °F /  12.3 °C 49.5 °F /  9.7 °C 30.33in /  1027hPa Calm     84.2% 0.00in /  0mm 86 W/m2
06:59 54.6 °F /  12.6 °C 49.9 °F /  9.9 °C 30.32in /  1026.6hPa Calm     83.9% 0.00in /  0mm 98 W/m2
07:04 55 °F /  12.8 °C 50 °F /  10 °C 30.32in /  1026.6hPa Calm     83% 0.00in /  0mm 116 W/m2
07:09 55.7 °F /  13.2 °C 50.5 °F /  10.3 °C 30.33in /  1027hPa Calm     82.8% 0.00in /  0mm 134 W/m2
07:14 56.2 °F /  13.4 °C 50.6 °F /  10.3 °C 30.33in /  1027hPa Calm     81.6% 0.00in /  0mm 149 W/m2
07:19 56.8 °F /  13.8 °C 50.8 °F /  10.4 °C 30.33in /  1027hPa Calm     80.5% 0.00in /  0mm 167 W/m2
07:24 57.2 °F /  14 °C 50.6 °F /  10.3 °C 30.33in /  1027hPa Calm     78.8% 0.00in /  0mm 183 W/m2
07:29 57.6 °F /  14.2 °C 50.5 °F /  10.3 °C 30.33in /  1027hPa ESE 0.1mph /  0.2km/h 1mph /  1.6km/h 77.5% 0.00in /  0mm 199 W/m2
07:34 57.9 °F /  14.4 °C 50.5 °F /  10.3 °C 30.33in /  1027hPa Calm   1mph /  1.6km/h 76.5% 0.00in /  0mm 214 W/m2
07:39 58 °F /  14.4 °C 50.2 °F /  10.1 °C 30.33in /  1027hPa Calm     75.2% 0.00in /  0mm 229 W/m2
07:44 58.4 °F /  14.7 °C 50.2 °F /  10.1 °C 30.33in /  1027hPa Calm     74.2% 0.00in /  0mm 244 W/m2
07:49 58 °F /  14.4 °C 49.1 °F /  9.5 °C 30.32in /  1026.6hPa Calm     72.2% 0.00in /  0mm 260 W/m2
07:54 57.8 °F /  14.3 °C 48.8 °F /  9.3 °C 30.32in /  1026.6hPa Calm     72% 0.00in /  0mm 276 W/m2
07:59 58 °F /  14.4 °C 49 °F /  9.4 °C 30.32in /  1026.6hPa Calm     72% 0.00in /  0mm 292 W/m2
08:04 58.5 °F /  14.7 °C 49.7 °F /  9.8 °C 30.33in /  1027hPa ESE 0.2mph /  0.3km/h 2mph /  3.2km/h 72.5% 0.00in /  0mm 309 W/m2
08:09 58.8 °F /  14.9 °C 49.6 °F /  9.8 °C 30.33in /  1027hPa ESE 0.8mph /  1.3km/h 3mph /  4.8km/h 71.4% 0.00in /  0mm 325 W/m2
08:14 58.8 °F /  14.9 °C 49 °F /  9.4 °C 30.33in /  1027hPa ESE 0.3mph /  0.5km/h 2mph /  3.2km/h 69.9% 0.00in /  0mm 338 W/m2
08:19 58.8 °F /  14.9 °C 48.7 °F /  9.3 °C 30.32in /  1026.6hPa ESE 0.3mph /  0.5km/h 3mph /  4.8km/h 69% 0.00in /  0mm 355 W/m2
08:24 59.2 °F /  15.1 °C 48.8 °F /  9.3 °C 30.32in /  1026.6hPa ESE 0.3mph /  0.5km/h 3mph /  4.8km/h 68.5% 0.00in /  0mm 373 W/m2
08:29 59.6 °F /  15.3 °C 49 °F /  9.4 °C 30.32in /  1026.6hPa ESE 0.2mph /  0.3km/h 2mph /  3.2km/h 68% 0.00in /  0mm 388 W/m2
08:34 59.9 °F /  15.5 °C 49 °F /  9.4 °C 30.32in /  1026.6hPa ESE 0.6mph /  1km/h 3mph /  4.8km/h 67.3% 0.00in /  0mm 403 W/m2
08:39 60.2 °F /  15.7 °C 48.5 °F /  9.2 °C 30.32in /  1026.6hPa ESE 0.2mph /  0.3km/h 3mph /  4.8km/h 65.4% 0.00in /  0mm 418 W/m2
08:44 61 °F /  16.1 °C 48.4 °F /  9.1 °C 30.32in /  1026.6hPa ESE 0.6mph /  1km/h 2mph /  3.2km/h 63.2% 0.00in /  0mm 432 W/m2
08:49 61.2 °F /  16.2 °C 49.3 °F /  9.6 °C 30.32in /  1026.6hPa ESE 0.9mph /  1.4km/h 3mph /  4.8km/h 65.1% 0.00in /  0mm 446 W/m2
08:54 61.9 °F /  16.6 °C 49.9 °F /  9.9 °C 30.32in /  1026.6hPa ESE 0.1mph /  0.2km/h 3mph /  4.8km/h 64.9% 0.00in /  0mm 459 W/m2
08:59 63.4 °F /  17.4 °C 50.1 °F /  10.1 °C 30.32in /  1026.6hPa Calm   1mph /  1.6km/h 62% 0.00in /  0mm 471 W/m2
09:04 63.8 °F /  17.7 °C 50 °F /  10 °C 30.32in /  1026.6hPa ESE 0.6mph /  1km/h 2mph /  3.2km/h 61% 0.00in /  0mm 483 W/m2
09:09 63.2 °F /  17.3 °C 49.6 °F /  9.8 °C 30.32in /  1026.6hPa East 1.1mph /  1.8km/h 4mph /  6.4km/h 61.2% 0.00in /  0mm 496 W/m2
09:14 63.1 °F /  17.3 °C 49.2 °F /  9.6 °C 30.32in /  1026.6hPa East 0.2mph /  0.3km/h 2mph /  3.2km/h 60.3% 0.00in /  0mm 508 W/m2
09:19 63.2 °F /  17.3 °C 49.2 °F /  9.6 °C 30.32in /  1026.6hPa East 0.1mph /  0.2km/h 1mph /  1.6km/h 60.2% 0.00in /  0mm 517 W/m2
09:24 64 °F /  17.8 °C 49.4 °F /  9.7 °C 30.32in /  1026.6hPa East 0.6mph /  1km/h 2mph /  3.2km/h 59% 0.00in /  0mm 531 W/m2
09:29 64.2 °F /  17.9 °C 49.5 °F /  9.7 °C 30.32in /  1026.6hPa East 1mph /  1.6km/h 3mph /  4.8km/h 58.8% 0.00in /  0mm 538 W/m2
09:34 64.4 °F /  18 °C 49.2 °F /  9.6 °C 30.32in /  1026.6hPa East 0.5mph /  0.8km/h 3mph /  4.8km/h 57.8% 0.00in /  0mm 548 W/m2
09:39 64.5 °F /  18.1 °C 48.8 °F /  9.3 °C 30.32in /  1026.6hPa ESE 2.6mph /  4.2km/h 5mph /  8km/h 56.9% 0.00in /  0mm 563 W/m2
09:44 63.9 °F /  17.7 °C 48.6 °F /  9.2 °C 30.32in /  1026.6hPa SE 3mph /  4.8km/h 7mph /  11.3km/h 57.5% 0.00in /  0mm 577 W/m2
09:49 65.4 °F /  18.6 °C 49.6 °F /  9.8 °C 30.32in /  1026.6hPa SSE 0.4mph /  0.6km/h 3mph /  4.8km/h 56.8% 0.00in /  0mm 587 W/m2
09:54 65.8 °F /  18.8 °C 49.6 °F /  9.8 °C 30.32in /  1026.6hPa SSE 1.1mph /  1.8km/h 3mph /  4.8km/h 55.9% 0.00in /  0mm 598 W/m2
09:59 65.6 °F /  18.7 °C 49.7 °F /  9.8 °C 30.32in /  1026.6hPa SSE 1.5mph /  2.4km/h 4mph /  6.4km/h 56.6% 0.00in /  0mm 605 W/m2
10:04 66.3 °F /  19.1 °C 50.2 °F /  10.1 °C 30.32in /  1026.6hPa SSE 0.7mph /  1.1km/h 5mph /  8km/h 56.1% 0.00in /  0mm 617 W/m2
10:09 66.5 °F /  19.2 °C 49.8 °F /  9.9 °C 30.32in /  1026.6hPa SSE 0.5mph /  0.8km/h 3mph /  4.8km/h 54.9% 0.00in /  0mm 624 W/m2
10:14 66.1 °F /  18.9 °C 50 °F /  10 °C 30.32in /  1026.6hPa SSE 0.3mph /  0.5km/h 3mph /  4.8km/h 56.2% 0.00in /  0mm 642 W/m2
10:19 66.1 °F /  18.9 °C 49.8 °F /  9.9 °C 30.31in /  1026.3hPa SSE 0.7mph /  1.1km/h 3mph /  4.8km/h 55.8% 0.00in /  0mm 642 W/m2
10:24 66.1 °F /  18.9 °C 50.2 °F /  10.1 °C 30.31in /  1026.3hPa SSE 0.9mph /  1.4km/h 4mph /  6.4km/h 56.4% 0.00in /  0mm 659 W/m2
10:29 66.8 °F /  19.3 °C 50.4 °F /  10.2 °C 30.31in /  1026.3hPa SSE 1.4mph /  2.3km/h 4mph /  6.4km/h 55.8% 0.00in /  0mm 671 W/m2
10:34 67.1 °F /  19.5 °C 50.3 °F /  10.2 °C 30.31in /  1026.3hPa SSE 1.1mph /  1.8km/h 4mph /  6.4km/h 54.8% 0.00in /  0mm 686 W/m2
10:39 67.7 °F /  19.8 °C 50.6 °F /  10.3 °C 30.31in /  1026.3hPa SSE 1mph /  1.6km/h 3mph /  4.8km/h 54.3% 0.00in /  0mm 687 W/m2
10:44 67.2 °F /  19.6 °C 50.7 °F /  10.4 °C 30.31in /  1026.3hPa SSE 1.3mph /  2.1km/h 5mph /  8km/h 55.5% 0.00in /  0mm 700 W/m2
10:49 67.8 °F /  19.9 °C 51.2 °F /  10.7 °C 30.30in /  1026hPa SSE 1.6mph /  2.6km/h 6mph /  9.7km/h 55.1% 0.00in /  0mm 708 W/m2
10:54 67.5 °F /  19.7 °C 51 °F /  10.6 °C 30.30in /  1026hPa SSE 1.1mph /  1.8km/h 6mph /  9.7km/h 55.5% 0.00in /  0mm 719 W/m2
10:59 68 °F /  20 °C 51.3 °F /  10.7 °C 30.30in /  1026hPa South 2.7mph /  4.3km/h 6mph /  9.7km/h 55.1% 0.00in /  0mm 729 W/m2
11:04 68 °F /  20 °C 51 °F /  10.6 °C 30.30in /  1026hPa SSW 1.9mph /  3.1km/h 6mph /  9.7km/h 54.5% 0.00in /  0mm 735 W/m2
11:09 67.8 °F /  19.9 °C 51.4 °F /  10.8 °C 30.30in /  1026hPa SSW 2.7mph /  4.3km/h 6mph /  9.7km/h 55.6% 0.00in /  0mm 737 W/m2
11:14 67.4 °F /  19.7 °C 50.9 °F /  10.5 °C 30.30in /  1026hPa SSW 1.1mph /  1.8km/h 5mph /  8km/h 55.5% 0.00in /  0mm 737 W/m2
11:19 68.6 °F /  20.3 °C 51.8 °F /  11 °C 30.29in /  1025.6hPa SSW 3.4mph /  5.5km/h 6mph /  9.7km/h 54.8% 0.00in /  0mm 756 W/m2
11:24 68.8 °F /  20.4 °C 51.5 °F /  10.8 °C 30.30in /  1026hPa SSW 1mph /  1.6km/h 6mph /  9.7km/h 54% 0.00in /  0mm 756 W/m2
11:29 69.9 °F /  21.1 °C 52 °F /  11.1 °C 30.29in /  1025.6hPa WSW 2.9mph /  4.7km/h 9mph /  14.5km/h 53.1% 0.00in /  0mm 777 W/m2
11:34 70.2 °F /  21.2 °C 52.2 °F /  11.2 °C 30.29in /  1025.6hPa NE 2.5mph /  4km/h 9mph /  14.5km/h 52.9% 0.00in /  0mm 780 W/m2
11:39 69.3 °F /  20.7 °C 51.9 °F /  11.1 °C 30.29in /  1025.6hPa East 1.5mph /  2.4km/h 7mph /  11.3km/h 53.7% 0.00in /  0mm 780 W/m2
11:44 70.3 °F /  21.3 °C 52.3 °F /  11.3 °C 30.29in /  1025.6hPa SSE 2.1mph /  3.4km/h 6mph /  9.7km/h 53% 0.00in /  0mm 789 W/m2
11:49 71.2 °F /  21.8 °C 52.5 °F /  11.4 °C 30.29in /  1025.6hPa SE 1mph /  1.6km/h 5mph /  8km/h 51.8% 0.00in /  0mm 782 W/m2
11:54 70.7 °F /  21.5 °C 52.1 °F /  11.2 °C 30.29in /  1025.6hPa SSW 1.8mph /  2.9km/h 6mph /  9.7km/h 52% 0.00in /  0mm 782 W/m2
11:59 70 °F /  21.1 °C 51.9 °F /  11.1 °C 30.29in /  1025.6hPa SSW 1.3mph /  2.1km/h 5mph /  8km/h 52.6% 0.00in /  0mm 796 W/m2
12:04 70.6 °F /  21.4 °C 52.3 °F /  11.3 °C 30.29in /  1025.6hPa SSW 0.6mph /  1km/h 4mph /  6.4km/h 52.3% 0.00in /  0mm 824 W/m2
12:09 71.9 °F /  22.2 °C 53 °F /  11.7 °C 30.29in /  1025.6hPa South 2.4mph /  3.9km/h 5mph /  8km/h 51.4% 0.00in /  0mm 821 W/m2
12:14 72.9 °F /  22.7 °C 53.1 °F /  11.7 °C 30.28in /  1025.3hPa SSE 1.2mph /  1.9km/h 4mph /  6.4km/h 50.1% 0.00in /  0mm 823 W/m2
12:19 73.2 °F /  22.9 °C 53.4 °F /  11.9 °C 30.28in /  1025.3hPa SSE 2.5mph /  4km/h 6mph /  9.7km/h 49.9% 0.00in /  0mm 826 W/m2
12:24 73.3 °F /  22.9 °C 53.1 °F /  11.7 °C 30.28in /  1025.3hPa SSE 2.1mph /  3.4km/h 6mph /  9.7km/h 49.2% 0.00in /  0mm 833 W/m2
12:29 72.2 °F /  22.3 °C 52.9 °F /  11.6 °C 30.28in /  1025.3hPa SSW 3.3mph /  5.3km/h 8mph /  12.9km/h 50.7% 0.00in /  0mm 837 W/m2
12:34 72.3 °F /  22.4 °C 53.1 °F /  11.7 °C 30.27in /  1024.9hPa SSW 2.1mph /  3.4km/h 6mph /  9.7km/h 50.9% 0.00in /  0mm 838 W/m2
12:39 72.7 °F /  22.6 °C 53.3 °F /  11.8 °C 30.27in /  1024.9hPa South 0.8mph /  1.3km/h 6mph /  9.7km/h 50.5% 0.00in /  0mm 844 W/m2
12:44 73.8 °F /  23.2 °C 53.8 °F /  12.1 °C 30.27in /  1024.9hPa South 2mph /  3.2km/h 5mph /  8km/h 49.6% 0.00in /  0mm 849 W/m2
12:49 73.3 °F /  22.9 °C 53.4 °F /  11.9 °C 30.27in /  1024.9hPa SE 2.4mph /  3.9km/h 7mph /  11.3km/h 49.8% 0.00in /  0mm 851 W/m2
12:54 72.4 °F /  22.4 °C 53.4 °F /  11.9 °C 30.27in /  1024.9hPa NNE 1.2mph /  1.9km/h 5mph /  8km/h 51.2% 0.00in /  0mm 856 W/m2
12:59 74.6 °F /  23.7 °C 54.1 °F /  12.3 °C 30.27in /  1024.9hPa NNE 2.3mph /  3.7km/h 6mph /  9.7km/h 48.8% 0.00in /  0mm 865 W/m2
13:04 75.2 °F /  24 °C 54.4 °F /  12.4 °C 30.26in /  1024.6hPa NNE 1.3mph /  2.1km/h 6mph /  9.7km/h 48.4% 0.00in /  0mm 861 W/m2
13:09 76.2 °F /  24.6 °C 53.9 °F /  12.2 °C 30.26in /  1024.6hPa NNE 1.5mph /  2.4km/h 5mph /  8km/h 46% 0.00in /  0mm 865 W/m2
13:14 74 °F /  23.3 °C 53.6 °F /  12 °C 30.26in /  1024.6hPa North 2.4mph /  3.9km/h 7mph /  11.3km/h 48.9% 0.00in /  0mm 870 W/m2
13:19 73.1 °F /  22.8 °C 53.7 °F /  12.1 °C 30.26in /  1024.6hPa WSW 2.9mph /  4.7km/h 7mph /  11.3km/h 50.7% 0.00in /  0mm 870 W/m2
13:24 72.4 °F /  22.4 °C 53.5 °F /  11.9 °C 30.26in /  1024.6hPa West 4.5mph /  7.2km/h 9mph /  14.5km/h 51.5% 0.00in /  0mm 867 W/m2
13:29 72 °F /  22.2 °C 53.6 °F /  12 °C 30.26in /  1024.6hPa West 2.1mph /  3.4km/h 8mph /  12.9km/h 52.1% 0.00in /  0mm 865 W/m2
13:34 71.7 °F /  22.1 °C 53.2 °F /  11.8 °C 30.26in /  1024.6hPa West 1.3mph /  2.1km/h 7mph /  11.3km/h 52.2% 0.00in /  0mm 861 W/m2
13:39 73.4 °F /  23 °C 54.5 °F /  12.5 °C 30.25in /  1024.3hPa West 1.1mph /  1.8km/h 5mph /  8km/h 51.6% 0.00in /  0mm 858 W/m2
13:44 74.2 °F /  23.4 °C 54.3 °F /  12.4 °C 30.25in /  1024.3hPa West 3.7mph /  6km/h 9mph /  14.5km/h 49.7% 0.00in /  0mm 856 W/m2
13:49 73 °F /  22.8 °C 53.7 °F /  12.1 °C 30.25in /  1024.3hPa WSW 3.7mph /  6km/h 9mph /  14.5km/h 51% 0.00in /  0mm 856 W/m2
13:54 72.7 °F /  22.6 °C 54.1 °F /  12.3 °C 30.25in /  1024.3hPa WNW 3.7mph /  6km/h 8mph /  12.9km/h 52% 0.00in /  0mm 856 W/m2
13:59 73.5 °F /  23.1 °C 54.7 °F /  12.6 °C 30.24in /  1023.9hPa West 2.1mph /  3.4km/h 6mph /  9.7km/h 51.9% 0.00in /  0mm 856 W/m2
14:04 74.1 °F /  23.4 °C 54.6 °F /  12.6 °C 30.24in /  1023.9hPa WNW 3.1mph /  5km/h 7mph /  11.3km/h 50.7% 0.00in /  0mm 860 W/m2
14:09 73.7 °F /  23.2 °C 54.8 °F /  12.7 °C 30.24in /  1023.9hPa NW 3.8mph /  6.1km/h 9mph /  14.5km/h 51.6% 0.00in /  0mm 865 W/m2
14:14 73.6 °F /  23.1 °C 54.5 °F /  12.5 °C 30.24in /  1023.9hPa NW 3.6mph /  5.8km/h 9mph /  14.5km/h 51.3% 0.00in /  0mm 875 W/m2
14:19 73.9 °F /  23.3 °C 54.7 °F /  12.6 °C 30.24in /  1023.9hPa NNW 2.7mph /  4.3km/h 8mph /  12.9km/h 51.2% 0.00in /  0mm 881 W/m2
14:24 73.8 °F /  23.2 °C 54.6 °F /  12.6 °C 30.24in /  1023.9hPa NNW 3mph /  4.8km/h 9mph /  14.5km/h 51% 0.00in /  0mm 830 W/m2
14:29 74.9 °F /  23.8 °C 54.8 °F /  12.7 °C 30.24in /  1023.9hPa NW 4.2mph /  6.8km/h 9mph /  14.5km/h 49.7% 0.00in /  0mm 851 W/m2
14:34 74.5 °F /  23.6 °C 55.1 °F /  12.8 °C 30.23in /  1023.6hPa NW 3.4mph /  5.5km/h 7mph /  11.3km/h 50.8% 0.00in /  0mm 858 W/m2
14:39 74.2 °F /  23.4 °C 54.7 °F /  12.6 °C 30.23in /  1023.6hPa WNW 1.2mph /  1.9km/h 7mph /  11.3km/h 50.6% 0.00in /  0mm 812 W/m2
14:44 74.5 °F /  23.6 °C 54.9 °F /  12.7 °C 30.23in /  1023.6hPa WNW 2.8mph /  4.5km/h 8mph /  12.9km/h 50.3% 0.00in /  0mm 819 W/m2
14:49 74.7 °F /  23.7 °C 54.8 °F /  12.7 °C 30.23in /  1023.6hPa West 2mph /  3.2km/h 8mph /  12.9km/h 49.9% 0.00in /  0mm 838 W/m2
14:54 75 °F /  23.9 °C 54.7 °F /  12.6 °C 30.23in /  1023.6hPa West 1.2mph /  1.9km/h 6mph /  9.7km/h 49.4% 0.00in /  0mm 828 W/m2
14:59 75.3 °F /  24.1 °C 54.5 °F /  12.5 °C 30.23in /  1023.6hPa West 2.6mph /  4.2km/h 6mph /  9.7km/h 48.5% 0.00in /  0mm 828 W/m2
15:04 74.9 °F /  23.8 °C 54.1 °F /  12.3 °C 30.23in /  1023.6hPa West 3.9mph /  6.3km/h 8mph /  12.9km/h 48.4% 0.00in /  0mm 823 W/m2
15:09 74.7 °F /  23.7 °C 54.1 °F /  12.3 °C 30.22in /  1023.2hPa West 3.7mph /  6km/h 8mph /  12.9km/h 48.8% 0.00in /  0mm 812 W/m2
15:14 74.6 °F /  23.7 °C 54.4 °F /  12.4 °C 30.22in /  1023.2hPa WNW 4.2mph /  6.8km/h 10mph /  16.1km/h 49.3% 0.00in /  0mm 802 W/m2
15:19 75 °F /  23.9 °C 54.1 °F /  12.3 °C 30.22in /  1023.2hPa WNW 3.2mph /  5.1km/h 8mph /  12.9km/h 48.2% 0.00in /  0mm 798 W/m2
15:24 75.8 °F /  24.3 °C 54 °F /  12.2 °C 30.22in /  1023.2hPa WNW 3mph /  4.8km/h 8mph /  12.9km/h 46.6% 0.00in /  0mm 782 W/m2
15:29 76.2 °F /  24.6 °C 54 °F /  12.2 °C 30.22in /  1023.2hPa NW 2mph /  3.2km/h 9mph /  14.5km/h 46.1% 0.00in /  0mm 759 W/m2
15:34 75.8 °F /  24.3 °C 53.7 °F /  12.1 °C 30.22in /  1023.2hPa NW 4.7mph /  7.6km/h 9mph /  14.5km/h 46.4% 0.00in /  0mm 744 W/m2
15:39 75.5 °F /  24.2 °C 54 °F /  12.2 °C 30.22in /  1023.2hPa NW 2.4mph /  3.9km/h 8mph /  12.9km/h 47.3% 0.00in /  0mm 722 W/m2
15:44 75.7 °F /  24.3 °C 54.2 °F /  12.3 °C 30.21in /  1022.9hPa NW 2mph /  3.2km/h 6mph /  9.7km/h 47.3% 0.00in /  0mm 714 W/m2
15:49 76.1 °F /  24.5 °C 54.2 °F /  12.3 °C 30.21in /  1022.9hPa NW 1.5mph /  2.4km/h 5mph /  8km/h 46.6% 0.00in /  0mm 722 W/m2
15:54 76.1 °F /  24.5 °C 55 °F /  12.8 °C 30.21in /  1022.9hPa NW 3.8mph /  6.1km/h 8mph /  12.9km/h 48% 0.00in /  0mm 705 W/m2
15:59 76 °F /  24.4 °C 54.7 °F /  12.6 °C 30.21in /  1022.9hPa WNW 4.5mph /  7.2km/h 9mph /  14.5km/h 47.6% 0.00in /  0mm 710 W/m2
16:04 75.7 °F /  24.3 °C 54.8 °F /  12.7 °C 30.21in /  1022.9hPa West 2.8mph /  4.5km/h 9mph /  14.5km/h 48.5% 0.00in /  0mm 724 W/m2
16:09 76 °F /  24.4 °C 55.2 °F /  12.9 °C 30.21in /  1022.9hPa West 4mph /  6.4km/h 9mph /  14.5km/h 48.4% 0.00in /  0mm 707 W/m2
16:14 75.8 °F /  24.3 °C 55.5 °F /  13.1 °C 30.21in /  1022.9hPa WNW 4.2mph /  6.8km/h 7mph /  11.3km/h 49.4% 0.00in /  0mm 710 W/m2
16:19 75.4 °F /  24.1 °C 55.3 °F /  12.9 °C 30.21in /  1022.9hPa NW 3.3mph /  5.3km/h 10mph /  16.1km/h 49.7% 0.00in /  0mm 696 W/m2
16:24 75.6 °F /  24.2 °C 55.7 °F /  13.2 °C 30.21in /  1022.9hPa NW 3.8mph /  6.1km/h 7mph /  11.3km/h 50.1% 0.00in /  0mm 693 W/m2
16:29 75.7 °F /  24.3 °C 56 °F /  13.3 °C 30.20in /  1022.6hPa WNW 5.2mph /  8.4km/h 9mph /  14.5km/h 50.5% 0.00in /  0mm 691 W/m2
16:34 75.8 °F /  24.3 °C 56 °F /  13.3 °C 30.20in /  1022.6hPa WNW 3.3mph /  5.3km/h 9mph /  14.5km/h 50.4% 0.00in /  0mm 696 W/m2
16:39 76.2 °F /  24.6 °C 56.2 °F /  13.4 °C 30.20in /  1022.6hPa WNW 4.1mph /  6.6km/h 8mph /  12.9km/h 50% 0.00in /  0mm 675 W/m2
16:44 75.9 °F /  24.4 °C 56.4 °F /  13.6 °C 30.20in /  1022.6hPa West 4.4mph /  7.1km/h 8mph /  12.9km/h 50.9% 0.00in /  0mm 654 W/m2
16:49 76.2 °F /  24.6 °C 56.8 °F /  13.8 °C 30.20in /  1022.6hPa WNW 4.9mph /  7.9km/h 9mph /  14.5km/h 51.1% 0.00in /  0mm 647 W/m2
16:54 75.9 °F /  24.4 °C 56.5 °F /  13.6 °C 30.20in /  1022.6hPa NW 4mph /  6.4km/h 10mph /  16.1km/h 51% 0.00in /  0mm 622 W/m2
16:59 75.9 °F /  24.4 °C 56.5 °F /  13.6 °C 30.20in /  1022.6hPa NW 4.6mph /  7.4km/h 8mph /  12.9km/h 50.9% 0.00in /  0mm 589 W/m2
17:04 75.6 °F /  24.2 °C 56.2 °F /  13.4 °C 30.19in /  1022.2hPa NW 1mph /  1.6km/h 8mph /  12.9km/h 51% 0.00in /  0mm 522 W/m2
17:09 75.8 °F /  24.3 °C 56.2 °F /  13.4 °C 30.19in /  1022.2hPa WNW 3mph /  4.8km/h 9mph /  14.5km/h 50.6% 0.00in /  0mm 445 W/m2
17:14 75.7 °F /  24.3 °C 56.1 °F /  13.4 °C 30.19in /  1022.2hPa WNW 3.6mph /  5.8km/h 9mph /  14.5km/h 50.6% 0.00in /  0mm 462 W/m2
17:19 75.7 °F /  24.3 °C 55.6 °F /  13.1 °C 30.19in /  1022.2hPa WNW 3.9mph /  6.3km/h 8mph /  12.9km/h 49.7% 0.00in /  0mm 457 W/m2
17:24 75.3 °F /  24.1 °C 55.2 °F /  12.9 °C 30.19in /  1022.2hPa WNW 4.2mph /  6.8km/h 9mph /  14.5km/h 49.8% 0.00in /  0mm 427 W/m2
17:29 75 °F /  23.9 °C 54.7 °F /  12.6 °C 30.19in /  1022.2hPa NW 4.2mph /  6.8km/h 9mph /  14.5km/h 49.3% 0.00in /  0mm 323 W/m2
17:34 74.7 °F /  23.7 °C 54.5 °F /  12.5 °C 30.19in /  1022.2hPa NW 4.8mph /  7.7km/h 8mph /  12.9km/h 49.4% 0.00in /  0mm 352 W/m2
17:39 74.3 °F /  23.5 °C 54.1 °F /  12.3 °C 30.19in /  1022.2hPa NW 3.3mph /  5.3km/h 7mph /  11.3km/h 49.1% 0.00in /  0mm 366 W/m2
17:44 74.3 °F /  23.5 °C 54 °F /  12.2 °C 30.19in /  1022.2hPa NW 4.1mph /  6.6km/h 9mph /  14.5km/h 49% 0.00in /  0mm 388 W/m2
17:49 74.4 °F /  23.6 °C 53.8 °F /  12.1 °C 30.19in /  1022.2hPa NW 4.4mph /  7.1km/h 9mph /  14.5km/h 48.6% 0.00in /  0mm 570 W/m2
17:54 74.9 °F /  23.8 °C 54.1 °F /  12.3 °C 30.19in /  1022.2hPa NW 3.6mph /  5.8km/h 6mph /  9.7km/h 48.3% 0.00in /  0mm 570 W/m2
17:59 75.4 °F /  24.1 °C 53.6 °F /  12 °C 30.18in /  1021.9hPa WNW 3.9mph /  6.3km/h 9mph /  14.5km/h 46.7% 0.00in /  0mm 524 W/m2
18:04 75.8 °F /  24.3 °C 53.6 °F /  12 °C 30.18in /  1021.9hPa WSW 2.9mph /  4.7km/h 9mph /  14.5km/h 46.2% 0.00in /  0mm 490 W/m2
18:09 76 °F /  24.4 °C 53.4 °F /  11.9 °C 30.18in /  1021.9hPa WSW 1.3mph /  2.1km/h 5mph /  8km/h 45.4% 0.00in /  0mm 478 W/m2
18:14 75.8 °F /  24.3 °C 53.3 °F /  11.8 °C 30.18in /  1021.9hPa West 5.1mph /  8.2km/h 9mph /  14.5km/h 45.7% 0.00in /  0mm 415 W/m2
18:19 75 °F /  23.9 °C 52.8 °F /  11.6 °C 30.18in /  1021.9hPa West 3.6mph /  5.8km/h 8mph /  12.9km/h 45.8% 0.00in /  0mm 388 W/m2
18:24 75.4 °F /  24.1 °C 53 °F /  11.7 °C 30.18in /  1021.9hPa West 2.6mph /  4.2km/h 6mph /  9.7km/h 45.8% 0.00in /  0mm 404 W/m2
18:29 75.4 °F /  24.1 °C 52.2 °F /  11.2 °C 30.18in /  1021.9hPa West 3.6mph /  5.8km/h 6mph /  9.7km/h 44.4% 0.00in /  0mm 383 W/m2
18:34 75.4 °F /  24.1 °C 52.4 °F /  11.3 °C 30.18in /  1021.9hPa West 2.1mph /  3.4km/h 6mph /  9.7km/h 44.8% 0.00in /  0mm 404 W/m2
18:39 75.7 °F /  24.3 °C 52.1 °F /  11.2 °C 30.17in /  1021.6hPa West 4.8mph /  7.7km/h 9mph /  14.5km/h 43.8% 0.00in /  0mm 387 W/m2
18:44 75.6 °F /  24.2 °C 51.3 °F /  10.7 °C 30.17in /  1021.6hPa West 3.6mph /  5.8km/h 9mph /  14.5km/h 42.8% 0.00in /  0mm 378 W/m2
18:49 75.5 °F /  24.2 °C 50.8 °F /  10.4 °C 30.17in /  1021.6hPa West 4.3mph /  6.9km/h 7mph /  11.3km/h 42% 0.00in /  0mm 362 W/m2
18:54 75.1 °F /  23.9 °C 50.5 °F /  10.3 °C 30.17in /  1021.6hPa West 4.1mph /  6.6km/h 7mph /  11.3km/h 42% 0.00in /  0mm 336 W/m2
18:59 74.9 °F /  23.8 °C 49.6 °F /  9.8 °C 30.17in /  1021.6hPa WSW 4.9mph /  7.9km/h 8mph /  12.9km/h 41% 0.00in /  0mm 325 W/m2
19:04 74.7 °F /  23.7 °C 49.7 °F /  9.8 °C 30.17in /  1021.6hPa WSW 4.4mph /  7.1km/h 7mph /  11.3km/h 41.3% 0.00in /  0mm 316 W/m2
19:09 74.9 °F /  23.8 °C 49.8 °F /  9.9 °C 30.17in /  1021.6hPa WSW 2.1mph /  3.4km/h 6mph /  9.7km/h 41.2% 0.00in /  0mm 299 W/m2
19:14 75.6 °F /  24.2 °C 50.4 °F /  10.2 °C 30.17in /  1021.6hPa WSW 2.9mph /  4.7km/h 7mph /  11.3km/h 41.1% 0.00in /  0mm 287 W/m2
19:19 75.7 °F /  24.3 °C 50.3 °F /  10.2 °C 30.17in /  1021.6hPa West 3.9mph /  6.3km/h 9mph /  14.5km/h 41% 0.00in /  0mm 274 W/m2
19:24 74.8 °F /  23.8 °C 50 °F /  10 °C 30.17in /  1021.6hPa WNW 6.4mph /  10.3km/h 10mph /  16.1km/h 41.8% 0.00in /  0mm 251 W/m2
19:29 74.3 °F /  23.5 °C 51.9 °F /  11.1 °C 30.17in /  1021.6hPa WNW 4.6mph /  7.4km/h 8mph /  12.9km/h 45.5% 0.00in /  0mm 227 W/m2
19:34 74 °F /  23.3 °C 53.8 °F /  12.1 °C 30.17in /  1021.6hPa WNW 5.5mph /  8.9km/h 10mph /  16.1km/h 49.2% 0.00in /  0mm 216 W/m2
19:39 73.2 °F /  22.9 °C 54.4 °F /  12.4 °C 30.17in /  1021.6hPa West 5.7mph /  9.2km/h 10mph /  16.1km/h 51.7% 0.00in /  0mm 179 W/m2
19:44 72.6 °F /  22.6 °C 54.2 °F /  12.3 °C 30.17in /  1021.6hPa West 4.6mph /  7.4km/h 9mph /  14.5km/h 52.5% 0.00in /  0mm 128 W/m2
19:49 72.5 °F /  22.5 °C 54.1 °F /  12.3 °C 30.17in /  1021.6hPa West 3.8mph /  6.1km/h 8mph /  12.9km/h 52.3% 0.00in /  0mm 146 W/m2
19:54 72.5 °F /  22.5 °C 54 °F /  12.2 °C 30.17in /  1021.6hPa West 4.3mph /  6.9km/h 8mph /  12.9km/h 52% 0.00in /  0mm 144 W/m2
19:59 72.3 °F /  22.4 °C 53.7 °F /  12.1 °C 30.17in /  1021.6hPa West 3.2mph /  5.1km/h 8mph /  12.9km/h 51.8% 0.00in /  0mm 107 W/m2
20:04 72.2 °F /  22.3 °C 53.6 °F /  12 °C 30.17in /  1021.6hPa West 3.6mph /  5.8km/h 7mph /  11.3km/h 52% 0.00in /  0mm 70 W/m2
20:09 71.8 °F /  22.1 °C 53.3 °F /  11.8 °C 30.17in /  1021.6hPa West 3.6mph /  5.8km/h 7mph /  11.3km/h 52.2% 0.00in /  0mm 77 W/m2
20:14 71.5 °F /  21.9 °C 53 °F /  11.7 °C 30.17in /  1021.6hPa West 4.7mph /  7.6km/h 8mph /  12.9km/h 52% 0.00in /  0mm 77 W/m2
20:19 71.4 °F /  21.9 °C 52.9 °F /  11.6 °C 30.17in /  1021.6hPa West 3.2mph /  5.1km/h 7mph /  11.3km/h 52% 0.00in /  0mm 83 W/m2
20:24 71.3 °F /  21.8 °C 53.2 °F /  11.8 °C 30.17in /  1021.6hPa West 3.6mph /  5.8km/h 8mph /  12.9km/h 52.9% 0.00in /  0mm 69 W/m2
20:29 70.5 °F /  21.4 °C 53 °F /  11.7 °C 30.17in /  1021.6hPa West 4.4mph /  7.1km/h 8mph /  12.9km/h 53.9% 0.00in /  0mm 46 W/m2
20:34 69.8 °F /  21 °C 53 °F /  11.7 °C 30.16in /  1021.2hPa West 2.5mph /  4km/h 7mph /  11.3km/h 55.1% 0.00in /  0mm 33 W/m2
20:39 69.4 °F /  20.8 °C 53.1 °F /  11.7 °C 30.16in /  1021.2hPa West 2.8mph /  4.5km/h 6mph /  9.7km/h 56.2% 0.00in /  0mm 28 W/m2
20:44 68.9 °F /  20.5 °C 53.1 °F /  11.7 °C 30.17in /  1021.6hPa West 2.6mph /  4.2km/h 6mph /  9.7km/h 57.1% 0.00in /  0mm 26 W/m2
20:49 68.4 °F /  20.2 °C 53 °F /  11.7 °C 30.17in /  1021.6hPa West 4mph /  6.4km/h 7mph /  11.3km/h 57.8% 0.00in /  0mm 26 W/m2
20:54 67.9 °F /  19.9 °C 52.6 °F /  11.4 °C 30.17in /  1021.6hPa West 3.3mph /  5.3km/h 7mph /  11.3km/h 58% 0.00in /  0mm 23 W/m2
20:59 67.5 °F /  19.7 °C 52.2 °F /  11.2 °C 30.17in /  1021.6hPa West 2.6mph /  4.2km/h 6mph /  9.7km/h 58% 0.00in /  0mm 18 W/m2
21:04 67.1 °F /  19.5 °C 52 °F /  11.1 °C 30.16in /  1021.2hPa West 4.2mph /  6.8km/h 7mph /  11.3km/h 58.3% 0.00in /  0mm 11 W/m2
21:09 66.8 °F /  19.3 °C 52 °F /  11.1 °C 30.16in /  1021.2hPa West 3.2mph /  5.1km/h 7mph /  11.3km/h 59% 0.00in /  0mm 7 W/m2
21:14 66.3 °F /  19.1 °C 51.6 °F /  10.9 °C 30.16in /  1021.2hPa West 3.4mph /  5.5km/h 7mph /  11.3km/h 59.1% 0.00in /  0mm 5 W/m2
21:19 66 °F /  18.9 °C 52 °F /  11.1 °C 30.16in /  1021.2hPa West 3.1mph /  5km/h 6mph /  9.7km/h 60.4% 0.00in /  0mm 0 W/m2
21:24 65.8 °F /  18.8 °C 52.1 °F /  11.2 °C 30.17in /  1021.6hPa West 2.5mph /  4km/h 7mph /  11.3km/h 61.4% 0.00in /  0mm 0 W/m2
21:29 65.5 °F /  18.6 °C 52.4 °F /  11.3 °C 30.17in /  1021.6hPa West 1.9mph /  3.1km/h 4mph /  6.4km/h 62.7% 0.00in /  0mm 0 W/m2
21:34 65.2 °F /  18.4 °C 52.8 °F /  11.6 °C 30.17in /  1021.6hPa West 1.9mph /  3.1km/h 5mph /  8km/h 64% 0.00in /  0mm 0 W/m2
21:39 65 °F /  18.3 °C 52.9 °F /  11.6 °C 30.17in /  1021.6hPa West 2.1mph /  3.4km/h 5mph /  8km/h 64.6% 0.00in /  0mm 0 W/m2
21:44 64.9 °F /  18.3 °C 53 °F /  11.7 °C 30.17in /  1021.6hPa West 2mph /  3.2km/h 5mph /  8km/h 65.4% 0.00in /  0mm 0 W/m2
21:49 64.8 °F /  18.2 °C 53.1 °F /  11.7 °C 30.17in /  1021.6hPa West 1.2mph /  1.9km/h 4mph /  6.4km/h 66.1% 0.00in /  0mm 0 W/m2
21:54 64.6 °F /  18.1 °C 53.4 °F /  11.9 °C 30.17in /  1021.6hPa West 1.1mph /  1.8km/h 4mph /  6.4km/h 67% 0.00in /  0mm 0 W/m2
21:59 64.4 °F /  18 °C 53.2 °F /  11.8 °C 30.17in /  1021.6hPa West 1.2mph /  1.9km/h 3mph /  4.8km/h 67% 0.00in /  0mm 0 W/m2
22:04 64.2 °F /  17.9 °C 53.4 °F /  11.9 °C 30.17in /  1021.6hPa West 1.8mph /  2.9km/h 5mph /  8km/h 67.9% 0.00in /  0mm 0 W/m2
22:09 64 °F /  17.8 °C 53.4 °F /  11.9 °C 30.17in /  1021.6hPa West 1.4mph /  2.3km/h 5mph /  8km/h 68.3% 0.00in /  0mm 0 W/m2
22:14 64 °F /  17.8 °C 53.5 °F /  11.9 °C 30.17in /  1021.6hPa West 0.7mph /  1.1km/h 3mph /  4.8km/h 68.9% 0.00in /  0mm 0 W/m2
22:19 63.8 °F /  17.7 °C 53 °F /  11.7 °C 30.17in /  1021.6hPa West 0.7mph /  1.1km/h 3mph /  4.8km/h 68% 0.00in /  0mm 0 W/m2
22:24 63.5 °F /  17.5 °C 52.7 °F /  11.5 °C 30.17in /  1021.6hPa West 0.3mph /  0.5km/h 2mph /  3.2km/h 68% 0.00in /  0mm 0 W/m2
22:29 63.4 °F /  17.4 °C 52.6 °F /  11.4 °C 30.17in /  1021.6hPa West 0.5mph /  0.8km/h 3mph /  4.8km/h 68% 0.00in /  0mm 0 W/m2
22:34 63.3 °F /  17.4 °C 52.5 °F /  11.4 °C 30.17in /  1021.6hPa West 0.2mph /  0.3km/h 2mph /  3.2km/h 68% 0.00in /  0mm 0 W/m2
22:39 63.4 °F /  17.4 °C 52.6 °F /  11.4 °C 30.17in /  1021.6hPa Calm   2mph /  3.2km/h 68% 0.00in /  0mm 0 W/m2
22:44 63.5 °F /  17.5 °C 52.7 °F /  11.5 °C 30.17in /  1021.6hPa West 0.1mph /  0.2km/h 2mph /  3.2km/h 68% 0.00in /  0mm 0 W/m2
22:49 63.5 °F /  17.5 °C 52.7 °F /  11.5 °C 30.17in /  1021.6hPa West 0.4mph /  0.6km/h 2mph /  3.2km/h 68% 0.00in /  0mm 0 W/m2
22:54 63.3 °F /  17.4 °C 52.5 °F /  11.4 °C 30.17in /  1021.6hPa Calm   1mph /  1.6km/h 68.1% 0.00in /  0mm 0 W/m2
22:59 63.3 °F /  17.4 °C 53.1 °F /  11.7 °C 30.17in /  1021.6hPa Calm   1mph /  1.6km/h 69% 0.00in /  0mm 0 W/m2
23:04 63.3 °F /  17.4 °C 53.2 °F /  11.8 °C 30.17in /  1021.6hPa West 0.2mph /  0.3km/h 1mph /  1.6km/h 69.3% 0.00in /  0mm 0 W/m2
23:09 63.1 °F /  17.3 °C 53.2 °F /  11.8 °C 30.17in /  1021.6hPa West 0.5mph /  0.8km/h 2mph /  3.2km/h 70% 0.00in /  0mm 0 W/m2
23:14 63 °F /  17.2 °C 53.2 °F /  11.8 °C 30.17in /  1021.6hPa West 0.2mph /  0.3km/h 2mph /  3.2km/h 70.2% 0.00in /  0mm 0 W/m2
23:19 62.8 °F /  17.1 °C 53.1 °F /  11.7 °C 30.17in /  1021.6hPa Calm     70.7% 0.00in /  0mm 0 W/m2
23:24 62.6 °F /  17 °C 53.1 °F /  11.7 °C 30.17in /  1021.6hPa Calm     71% 0.00in /  0mm 0 W/m2
23:29 62.4 °F /  16.9 °C 52.9 °F /  11.6 °C 30.17in /  1021.6hPa Calm     71% 0.00in /  0mm 0 W/m2
23:34 62.2 °F /  16.8 °C 53.1 °F /  11.7 °C 30.17in /  1021.6hPa Calm     71.9% 0.00in /  0mm 0 W/m2
23:39 62.1 °F /  16.7 °C 52.9 °F /  11.6 °C 30.17in /  1021.6hPa Calm     72% 0.00in /  0mm 0 W/m2
23:44 62 °F /  16.7 °C 52.8 °F /  11.6 °C 30.17in /  1021.6hPa West 0.2mph /  0.3km/h 1mph /  1.6km/h 72% 0.00in /  0mm 0 W/m2
23:49 61.7 °F /  16.5 °C 52.5 °F /  11.4 °C 30.17in /  1021.6hPa Calm     72% 0.00in /  0mm 0 W/m2
23:54 61.5 °F /  16.4 °C 52.4 °F /  11.3 °C 30.17in /  1021.6hPa Calm     72.3% 0.00in /  0mm 0 W/m2
23:59 61.4 °F /  16.3 °C 52.7 °F /  11.5 °C 30.17in /  1021.6hPa Calm     73% 0.00in /  0mm 0 W/m2
Bath Spa Weather
Compliments of Weather Underground - 2 mb